createdAt,value
2018-04-10T06:31:58.696Z,56.40
2018-04-10T07:49:38.853Z,50.20
2018-04-10T07:52:06.630Z,50.40
2018-04-10T07:54:38.091Z,50.20
2018-04-10T07:57:06.137Z,50.10
2018-04-10T07:59:34.560Z,50.60
2018-04-10T08:02:02.806Z,51.20
2018-04-10T08:04:32.047Z,51.30
2018-04-10T08:07:00.439Z,51.30
2018-04-10T08:09:28.178Z,50.60
2018-04-10T08:11:55.811Z,50.20
2018-04-10T08:14:24.112Z,49.70
2018-04-10T08:16:51.607Z,49.80
2018-04-10T08:19:19.300Z,49.80
2018-04-10T08:21:46.852Z,49.90
2018-04-10T08:24:15.253Z,49.20
2018-04-10T08:26:42.930Z,49.40
2018-04-10T08:29:10.431Z,49.20
2018-04-10T08:31:39.133Z,48.80
2018-04-10T08:34:07.413Z,47.90
2018-04-10T08:36:36.225Z,46.90
2018-04-10T08:39:04.347Z,46.90
2018-04-10T08:41:33.747Z,47.10
2018-04-10T08:44:03.170Z,48.10
2018-04-10T08:46:31.578Z,48.80
2018-04-10T08:48:59.894Z,48.90
2018-04-10T08:51:27.412Z,48.70
2018-04-10T08:53:55.722Z,47.10
2018-04-10T08:56:24.379Z,47.10
2018-04-10T08:58:54.299Z,47.00
2018-04-10T09:01:23.770Z,46.80
2018-04-10T09:03:51.938Z,46.80
2018-04-10T09:06:20.733Z,47.00
2018-04-10T09:08:49.108Z,46.30
2018-04-10T09:11:20.678Z,46.00
2018-04-10T09:13:49.183Z,46.90
2018-04-10T09:16:16.733Z,47.20
2018-04-10T09:18:45.988Z,46.40
2018-04-10T09:21:14.421Z,46.80
2018-04-10T09:23:44.165Z,46.10
2018-04-10T09:26:12.525Z,46.50
2018-04-10T09:28:41.535Z,45.00
2018-04-10T09:31:09.805Z,44.40
2018-04-10T09:33:38.840Z,45.50
2018-04-10T09:36:09.213Z,45.00
2018-04-10T09:38:36.928Z,46.20
2018-04-10T09:41:06.268Z,45.80
2018-04-10T09:43:37.751Z,45.10
2018-04-10T09:46:06.435Z,45.00
2018-04-10T09:48:34.152Z,44.40
2018-04-10T09:51:01.727Z,43.70
2018-04-10T09:53:29.784Z,44.80
2018-04-10T09:55:59.223Z,45.00
2018-04-10T09:58:28.387Z,43.60
2018-04-10T10:00:56.808Z,43.40
2018-04-10T10:03:25.291Z,43.00
2018-04-10T10:05:55.465Z,43.30
2018-04-10T10:08:23.949Z,42.60
2018-04-10T10:10:52.321Z,43.10
2018-04-10T10:13:20.691Z,43.30
2018-04-10T10:15:48.254Z,44.30
2018-04-10T10:18:17.171Z,43.60
2018-04-10T10:20:44.703Z,44.80
2018-04-10T10:23:13.389Z,45.90
2018-04-10T10:25:41.371Z,45.90
2018-04-10T10:28:09.139Z,45.40
2018-04-10T10:30:39.288Z,44.30
2018-04-10T10:33:11.049Z,43.70
2018-04-10T10:35:40.700Z,43.80
2018-04-10T10:38:08.224Z,43.80
2018-04-10T10:40:36.843Z,42.60
2018-04-10T10:43:04.619Z,43.00
2018-04-10T10:45:33.475Z,43.10
2018-04-10T10:48:02.688Z,43.60
2018-04-10T10:50:32.739Z,44.60
2018-04-10T10:53:00.870Z,44.20
2018-04-10T10:55:29.252Z,44.40
2018-04-10T10:57:57.591Z,43.50
2018-04-10T11:00:25.979Z,43.40
2018-04-10T11:03:02.104Z,42.40
2018-04-10T11:05:29.878Z,42.30
2018-04-10T11:08:00.553Z,41.30
2018-04-10T11:10:30.254Z,40.50
2018-04-10T11:12:58.794Z,41.20
2018-04-10T11:15:29.524Z,40.40
2018-04-10T11:17:57.704Z,41.00
2018-04-10T11:20:28.182Z,40.80
2018-04-10T11:22:55.705Z,40.80
2018-04-10T11:25:25.396Z,41.10
2018-04-10T11:27:53.888Z,39.40
2018-04-10T11:30:21.940Z,39.60
2018-04-10T11:32:50.807Z,39.60
2018-04-10T11:35:20.517Z,39.60
2018-04-10T11:37:48.802Z,39.00
2018-04-10T11:40:18.116Z,38.70
2018-04-10T11:42:45.644Z,38.50
2018-04-10T11:45:13.419Z,38.30
2018-04-10T11:47:42.972Z,38.40
2018-04-10T11:50:11.150Z,38.30
2018-04-10T11:52:43.567Z,38.30
2018-04-10T11:55:15.565Z,38.20
2018-04-10T11:57:43.139Z,39.10
2018-04-10T12:00:11.803Z,38.70
2018-04-10T12:02:39.390Z,38.20
2018-04-10T12:05:08.340Z,38.10
2018-04-10T12:07:36.800Z,38.60
2018-04-10T12:10:05.947Z,37.30
2018-04-10T12:12:33.793Z,37.30
2018-04-10T12:15:02.731Z,38.00
2018-04-10T12:17:31.130Z,38.00
2018-04-10T12:19:59.035Z,37.50
2018-04-10T12:22:27.545Z,36.90
2018-04-10T12:24:57.643Z,36.80
2018-04-10T12:27:25.170Z,36.70
2018-04-10T12:29:52.984Z,36.50
2018-04-10T12:32:24.856Z,36.80
2018-04-10T12:34:56.136Z,35.90
2018-04-10T12:37:23.693Z,36.20
2018-04-10T12:39:51.495Z,36.40
2018-04-10T12:42:19.670Z,36.10
2018-04-10T12:44:48.971Z,35.60
2018-04-10T12:47:20.183Z,36.20
2018-04-10T12:49:49.027Z,36.20
2018-04-10T12:52:17.456Z,34.60
2018-04-10T12:54:45.127Z,34.00
2018-04-10T12:57:15.709Z,34.50
2018-04-10T12:59:44.002Z,33.70
2018-04-10T13:02:12.306Z,33.70
2018-04-10T13:04:40.336Z,32.20
2018-04-10T13:07:08.722Z,32.40
2018-04-10T13:09:38.032Z,31.80
2018-04-10T13:12:06.544Z,32.30
2018-04-10T13:14:34.130Z,30.80
2018-04-10T13:17:02.793Z,32.40
2018-04-10T13:19:30.306Z,31.30
2018-04-10T13:21:58.620Z,31.60
2018-04-10T13:24:26.919Z,31.50
2018-04-10T13:26:55.936Z,32.20
2018-04-10T13:29:24.955Z,32.20
2018-04-10T13:31:53.423Z,32.20
2018-04-10T13:34:23.671Z,31.00
2018-04-10T13:36:56.804Z,32.90
2018-04-10T13:39:25.408Z,33.40
2018-04-10T13:41:53.847Z,33.10
2018-04-10T13:44:23.764Z,32.80
2018-04-10T13:46:51.332Z,32.10
2018-04-10T13:49:19.116Z,32.30
2018-04-10T13:51:48.805Z,32.80
2018-04-10T13:54:16.362Z,32.30
2018-04-10T13:56:45.008Z,31.80
2018-04-10T13:59:15.575Z,32.60
2018-04-10T14:01:43.129Z,32.60
2018-04-10T14:04:11.132Z,32.50
2018-04-10T14:06:40.035Z,33.20
2018-04-10T14:09:09.840Z,33.20
2018-04-10T14:11:38.853Z,33.60
2018-04-10T14:14:07.673Z,34.70
2018-04-10T14:16:36.093Z,35.00
2018-04-10T14:19:04.578Z,35.40
2018-04-10T14:21:32.241Z,36.20
2018-04-10T14:24:00.427Z,36.50
2018-04-10T14:26:29.237Z,35.60
2018-04-10T14:28:59.067Z,36.70
2018-04-10T14:31:27.287Z,37.00
2018-04-10T14:33:57.847Z,37.10
2018-04-10T14:36:28.160Z,37.00
2018-04-10T14:38:56.698Z,37.60
2018-04-10T14:41:25.160Z,37.60
2018-04-10T14:43:54.584Z,37.80
2018-04-10T14:46:23.392Z,37.60
2018-04-10T14:48:51.833Z,37.00
2018-04-10T14:51:20.619Z,37.20
2018-04-10T14:53:48.592Z,37.20
2018-04-10T14:56:17.047Z,37.50
2018-04-10T14:58:47.275Z,38.20
2018-04-10T15:01:14.897Z,38.70
2018-04-10T15:03:44.126Z,38.90
2018-04-10T15:06:11.699Z,38.90
2018-04-10T15:08:39.262Z,39.90
2018-04-10T15:11:07.931Z,40.90
2018-04-10T15:13:37.000Z,40.50
2018-04-10T15:16:05.451Z,41.50
2018-04-10T15:18:33.035Z,41.90
2018-04-10T15:21:03.003Z,42.00
2018-04-10T15:23:32.076Z,41.90
2018-04-10T15:26:00.832Z,42.60
2018-04-10T15:28:31.140Z,43.40
2018-04-10T15:31:01.027Z,44.00
2018-04-10T15:33:29.903Z,44.20
2018-04-10T15:40:57.951Z,42.90
2018-04-10T15:43:29.744Z,44.50
2018-04-10T15:45:59.616Z,45.10
2018-04-10T15:48:29.308Z,46.10
2018-04-10T16:21:02.767Z,46.80
